Airport View

Enter AWOS ICAO identifier for current METAR.

ex. KFNL

KVJI 280100Z AUTO 00000KT 10SM SCT041 SCT055 18/16 A2997 RMK AO2 T01750157

28 Sep 2020 01:07

Frequency: 128.125

Phone: 276-628-2940

Other Area AWOS: K0A9 - KTRI - KJFZ - KLNP

TAF KTRI 272320Z 2800/2824 VRB03KT P6SM SCT050 FM280500 15004KT P6SM BKN050 FM280800 VRB03KT 3SM BR BKN040 FM280900 VRB03KT 1SM BR BKN020 FM281300 19005KT P6SM BKN025 FM281500 19006KT P6SM SCT035 PROB30 2820/2824 4SM -SHRA BR OVC025